Time;durP1;ratioP1;P1;durP2;ratioP2;P2;SDS_P1;SDS_P2;PMS_P1;PMS_P2;Temp;Humidity;BMP_temperature;BMP_pressure;BME280_temperature;BME280_humidity;BME280_pressure;Samples;Min_cycle;Max_cycle;Signal;HPM_P1;HPM_P2
2021/07/28 00:00:13;;;;;;;12.35;10.00;;;20.00;92.80;;;;;;5016146;28;20045;-67
2021/07/28 00:02:40;;;;;;;11.32;9.55;;;20.10;93.50;;;;;;5017312;28;20030;-67
2021/07/28 00:05:06;;;;;;;13.82;10.68;;;20.00;92.90;;;;;;5017970;28;20491;-66
2021/07/28 00:07:32;;;;;;;11.20;9.95;;;20.00;93.60;;;;;;5016131;28;20056;-68
2021/07/28 00:09:57;;;;;;;11.93;9.98;;;20.10;93.60;;;;;;5015316;28;20033;-67
2021/07/28 00:12:23;;;;;;;11.65;10.45;;;20.10;93.30;;;;;;5018002;28;20620;-67
2021/07/28 00:14:49;;;;;;;12.90;9.88;;;20.00;92.90;;;;;;5015524;28;20084;-67
2021/07/28 00:17:15;;;;;;;15.02;9.95;;;20.00;93.00;;;;;;5021203;28;20095;-67
2021/07/28 00:25:05;;;;;;;15.40;10.55;;;19.90;93.20;;;;;;5017660;28;20029;-66
2021/07/28 00:27:31;;;;;;;12.02;10.48;;;19.90;93.40;;;;;;5020163;28;20049;-67
2021/07/28 00:29:57;;;;;;;12.75;9.55;;;19.90;93.70;;;;;;5022678;28;20036;-68
2021/07/28 00:32:22;;;;;;;12.15;10.18;;;19.90;93.40;;;;;;5022673;28;20030;-67
2021/07/28 00:34:48;;;;;;;11.43;9.27;;;19.90;93.40;;;;;;5019804;28;20030;-67
2021/07/28 00:37:14;;;;;;;12.32;10.27;;;19.90;93.50;;;;;;5019808;28;20033;-67
2021/07/28 00:39:39;;;;;;;13.40;10.45;;;19.80;93.60;;;;;;5017440;28;20416;-67
2021/07/28 00:42:05;;;;;;;11.18;9.60;;;19.80;93.20;;;;;;5019837;28;20037;-67
2021/07/28 00:44:31;;;;;;;9.60;8.40;;;19.80;93.10;;;;;;5019965;28;20041;-67
2021/07/28 00:46:56;;;;;;;9.57;8.23;;;19.80;93.00;;;;;;5024018;28;20029;-68
2021/07/28 00:49:24;;;;;;;9.27;7.32;;;19.80;93.20;;;;;;5019889;28;20045;-67
2021/07/28 00:51:51;;;;;;;8.77;7.50;;;19.80;93.10;;;;;;5019520;28;20045;-68
2021/07/28 00:54:17;;;;;;;9.93;7.78;;;19.80;92.90;;;;;;5015675;28;20084;-67
2021/07/28 00:56:43;;;;;;;9.60;7.90;;;19.80;92.90;;;;;;5014953;28;20030;-66
2021/07/28 00:59:09;;;;;;;10.30;7.93;;;19.80;92.80;;;;;;5019546;28;20052;-67
2021/07/28 01:01:38;;;;;;;9.40;7.65;;;19.80;92.90;;;;;;5018170;28;20029;-67
2021/07/28 01:04:04;;;;;;;8.90;7.07;;;19.80;92.50;;;;;;5016855;28;20598;-68
2021/07/28 01:06:31;;;;;;;9.40;6.68;;;19.70;92.10;;;;;;5018395;28;20125;-67
2021/07/28 01:08:57;;;;;;;8.18;6.63;;;19.70;92.10;;;;;;5017916;28;20412;-67
2021/07/28 01:11:26;;;;;;;8.40;6.60;;;19.70;92.40;;;;;;5015505;28;20029;-68
2021/07/28 01:13:52;;;;;;;8.07;6.13;;;19.70;92.10;;;;;;5016015;28;20144;-67
2021/07/28 01:16:23;;;;;;;7.20;6.28;;;19.70;92.30;;;;;;5019060;28;20112;-67
2021/07/28 01:18:51;;;;;;;8.10;5.72;;;19.70;92.20;;;;;;5016997;28;20034;-68
2021/07/28 01:21:19;;;;;;;7.70;6.25;;;19.70;92.30;;;;;;5019935;28;20095;-67
2021/07/28 01:23:46;;;;;;;6.55;5.85;;;19.70;92.30;;;;;;5015337;28;20492;-67
2021/07/28 01:26:14;;;;;;;7.57;5.95;;;19.70;92.30;;;;;;5018733;28;20087;-67
2021/07/28 01:28:41;;;;;;;9.10;6.90;;;19.70;92.60;;;;;;5018472;28;20029;-67
2021/07/28 01:31:14;;;;;;;8.13;6.15;;;19.70;92.70;;;;;;5018871;28;20076;-67
2021/07/28 01:33:45;;;;;;;6.82;6.13;;;19.70;92.40;;;;;;5017748;28;20029;-67
2021/07/28 01:36:14;;;;;;;7.80;5.95;;;19.60;92.00;;;;;;5019547;28;20041;-68
2021/07/28 01:38:40;;;;;;;7.88;6.68;;;19.60;92.30;;;;;;5018299;28;20527;-67
2021/07/28 01:41:06;;;;;;;8.30;6.15;;;19.60;92.40;;;;;;5014974;28;20160;-67
2021/07/28 01:43:33;;;;;;;7.68;6.88;;;19.60;92.40;;;;;;5017368;28;20034;-67
2021/07/28 01:46:00;;;;;;;7.35;6.25;;;19.60;92.50;;;;;;5018325;28;20061;-67
2021/07/28 01:48:27;;;;;;;8.20;5.93;;;19.60;92.10;;;;;;5019759;28;20037;-67
2021/07/28 01:50:54;;;;;;;7.80;6.68;;;19.60;92.20;;;;;;5018120;28;20465;-68
2021/07/28 01:53:20;;;;;;;8.90;7.03;;;19.50;92.10;;;;;;5019581;28;20396;-67
2021/07/28 01:55:46;;;;;;;8.90;6.20;;;19.50;92.00;;;;;;5018082;28;20022;-67
2021/07/28 01:58:12;;;;;;;8.85;6.78;;;19.50;92.30;;;;;;5019155;28;20473;-67
2021/07/28 02:00:40;;;;;;;8.57;6.45;;;19.50;91.60;;;;;;5015439;28;21224;-67
2021/07/28 02:03:05;;;;;;;7.63;6.07;;;19.60;92.10;;;;;;5017844;28;20029;-68
2021/07/28 02:05:35;;;;;;;6.85;6.15;;;19.60;92.00;;;;;;5016730;28;20040;-67
2021/07/28 02:08:06;;;;;;;10.15;6.65;;;19.60;91.50;;;;;;5015980;28;20031;-67
2021/07/28 02:10:33;;;;;;;9.07;6.22;;;19.60;91.60;;;;;;5017540;28;20503;-68
2021/07/28 02:13:01;;;;;;;7.60;5.90;;;19.50;92.20;;;;;;5019549;28;20042;-67
2021/07/28 02:15:27;;;;;;;11.77;6.95;;;19.60;92.10;;;;;;5016902;28;20029;-67
2021/07/28 02:17:54;;;;;;;8.75;6.10;;;19.50;91.30;;;;;;5017258;28;20072;-67
2021/07/28 02:20:20;;;;;;;7.00;5.97;;;19.50;91.50;;;;;;5021597;28;20043;-67
2021/07/28 02:22:46;;;;;;;7.97;6.18;;;19.50;91.80;;;;;;5014028;28;20033;-67
2021/07/28 02:25:13;;;;;;;6.63;5.75;;;19.50;91.70;;;;;;5015685;28;20030;-67
2021/07/28 02:27:39;;;;;;;9.80;6.72;;;19.50;92.00;;;;;;5017347;28;20034;-68
2021/07/28 02:30:06;;;;;;;7.32;6.07;;;19.50;92.20;;;;;;5017769;28;20038;-68
2021/07/28 02:32:32;;;;;;;8.43;6.25;;;19.50;91.90;;;;;;5018869;28;20780;-68
2021/07/28 02:34:58;;;;;;;8.93;5.57;;;19.50;92.10;;;;;;5015755;28;20037;-67
2021/07/28 02:37:24;;;;;;;6.97;5.60;;;19.50;91.90;;;;;;5016886;28;20030;-68
2021/07/28 02:39:49;;;;;;;6.20;5.60;;;19.50;91.50;;;;;;5014510;28;20045;-67
2021/07/28 02:42:15;;;;;;;7.18;5.38;;;19.50;92.00;;;;;;5017996;28;20083;-67
2021/07/28 02:44:40;;;;;;;8.18;5.78;;;19.40;91.70;;;;;;5014352;28;20044;-67
2021/07/28 02:47:06;;;;;;;7.55;5.93;;;19.40;91.80;;;;;;5017067;28;20060;-66
2021/07/28 02:49:32;;;;;;;7.15;5.63;;;19.50;91.60;;;;;;5017654;28;20026;-67
2021/07/28 02:51:58;;;;;;;7.32;5.10;;;19.40;92.00;;;;;;5018525;28;20649;-67
2021/07/28 02:54:23;;;;;;;7.07;5.38;;;19.50;91.00;;;;;;5016310;28;20068;-68
2021/07/28 02:56:52;;;;;;;10.07;5.90;;;19.50;91.10;;;;;;5018655;28;20146;-67
2021/07/28 02:59:18;;;;;;;6.25;5.40;;;19.50;91.20;;;;;;5011985;28;20091;-68
2021/07/28 03:01:43;;;;;;;8.57;5.90;;;19.50;91.10;;;;;;5015814;28;20465;-67
2021/07/28 03:04:09;;;;;;;8.73;5.93;;;19.50;91.10;;;;;;5015083;28;20057;-67
2021/07/28 03:06:35;;;;;;;8.88;6.45;;;19.50;91.00;;;;;;5017515;28;20095;-67
2021/07/28 03:09:01;;;;;;;8.32;6.10;;;19.50;90.70;;;;;;5018882;28;20109;-68
2021/07/28 03:11:27;;;;;;;8.05;6.03;;;19.40;91.10;;;;;;5017956;28;20086;-67
2021/07/28 03:13:52;;;;;;;8.82;6.00;;;19.40;91.00;;;;;;5013339;28;20461;-67
2021/07/28 03:16:18;;;;;;;8.40;5.95;;;19.40;91.10;;;;;;5014911;28;20391;-68
2021/07/28 03:18:44;;;;;;;9.05;6.22;;;19.40;91.10;;;;;;5018108;28;20100;-67
2021/07/28 03:21:10;;;;;;;8.35;6.75;;;19.40;91.10;;;;;;5017672;28;20033;-68
2021/07/28 03:23:36;;;;;;;8.13;6.50;;;19.40;91.10;;;;;;5014910;28;20034;-67
2021/07/28 03:26:02;;;;;;;6.32;5.32;;;19.40;91.30;;;;;;5017145;28;20504;-67
2021/07/28 03:28:28;;;;;;;7.47;5.75;;;19.40;91.40;;;;;;5017523;28;20061;-68
2021/07/28 03:30:53;;;;;;;9.02;6.53;;;19.30;91.10;;;;;;5016712;28;20115;-68
2021/07/28 03:33:19;;;;;;;7.50;6.03;;;19.40;91.20;;;;;;5015348;28;20037;-66
2021/07/28 03:35:45;;;;;;;8.38;6.35;;;19.30;91.30;;;;;;5015747;28;20022;-67
2021/07/28 03:38:12;;;;;;;8.32;6.28;;;19.30;91.10;;;;;;5016264;28;20515;-67
2021/07/28 03:40:38;;;;;;;6.25;5.60;;;19.30;91.30;;;;;;5015303;28;20034;-67
2021/07/28 03:43:04;;;;;;;7.63;5.75;;;19.20;91.30;;;;;;5016345;28;20407;-67
2021/07/28 03:45:30;;;;;;;8.27;5.85;;;19.20;91.40;;;;;;5017705;28;20049;-68
2021/07/28 03:47:55;;;;;;;6.95;5.88;;;19.20;91.40;;;;;;5015550;28;20033;-67
2021/07/28 03:50:21;;;;;;;9.45;6.50;;;19.30;91.20;;;;;;5016988;28;20041;-66
2021/07/28 03:52:47;;;;;;;8.15;5.80;;;19.30;91.30;;;;;;5022637;28;20123;-67
2021/07/28 03:55:12;;;;;;;7.93;6.22;;;19.20;91.30;;;;;;5021523;28;20030;-67
2021/07/28 03:57:38;;;;;;;11.02;6.45;;;19.10;91.40;;;;;;5020665;28;20676;-66
2021/07/28 04:00:05;;;;;;;8.02;5.75;;;19.10;91.50;;;;;;5021335;28;21511;-66
2021/07/28 04:02:31;;;;;;;11.13;6.00;;;19.20;91.50;;;;;;5019091;28;20041;-67
2021/07/28 04:04:56;;;;;;;7.95;6.40;;;19.20;91.50;;;;;;5019056;28;20103;-67
2021/07/28 04:07:22;;;;;;;10.23;6.55;;;19.20;91.80;;;;;;5020162;28;20048;-67
2021/07/28 04:09:48;;;;;;;10.07;6.47;;;19.20;91.30;;;;;;5020244;28;20113;-67
2021/07/28 04:12:14;;;;;;;7.65;6.53;;;19.20;91.40;;;;;;5021180;28;20069;-67
2021/07/28 04:14:39;;;;;;;8.57;7.00;;;19.10;91.40;;;;;;5017750;28;20471;-67
2021/07/28 04:17:06;;;;;;;9.43;6.68;;;19.10;91.50;;;;;;5019708;28;20041;-66
2021/07/28 04:19:31;;;;;;;9.02;6.07;;;19.20;91.70;;;;;;5021869;28;20112;-67
2021/07/28 04:21:57;;;;;;;9.18;6.47;;;19.20;91.70;;;;;;5020791;28;20038;-67
2021/07/28 04:24:23;;;;;;;9.65;6.63;;;19.20;91.50;;;;;;5019804;28;20037;-67
2021/07/28 04:26:48;;;;;;;8.05;6.90;;;19.10;91.50;;;;;;5021517;28;20526;-67
2021/07/28 04:29:14;;;;;;;9.63;6.55;;;19.10;91.70;;;;;;5020251;28;20042;-67
2021/07/28 04:31:40;;;;;;;9.90;7.18;;;19.10;91.80;;;;;;5017974;28;20033;-67
2021/07/28 04:34:06;;;;;;;9.35;6.75;;;19.10;91.70;;;;;;5017777;28;20089;-67
2021/07/28 04:36:31;;;;;;;9.77;6.78;;;19.10;91.60;;;;;;5021570;28;20484;-66
2021/07/28 04:39:00;;;;;;;10.38;6.85;;;19.10;91.70;;;;;;5024004;28;20034;-67
2021/07/28 04:41:26;;;;;;;7.68;6.22;;;19.10;92.00;;;;;;5011830;28;20426;-67
2021/07/28 04:43:51;;;;;;;10.88;7.57;;;19.10;92.00;;;;;;5016269;28;20041;-66
2021/07/28 04:46:18;;;;;;;10.73;6.40;;;19.00;91.90;;;;;;5020148;28;20464;-67
2021/07/28 04:48:43;;;;;;;8.30;6.45;;;19.10;92.10;;;;;;5019177;28;20442;-67
2021/07/28 04:51:09;;;;;;;9.93;7.65;;;19.00;92.10;;;;;;5019845;28;20061;-67
2021/07/28 04:53:35;;;;;;;9.73;7.55;;;19.10;92.00;;;;;;5019615;28;20414;-68
2021/07/28 04:56:01;;;;;;;9.77;6.68;;;19.10;92.20;;;;;;5018829;28;20369;-67
2021/07/28 04:58:26;;;;;;;11.40;7.30;;;19.10;92.10;;;;;;5019896;28;20065;-67
2021/07/28 05:00:53;;;;;;;12.73;7.93;;;19.10;92.00;;;;;;5014975;28;20038;-67
2021/07/28 05:03:19;;;;;;;9.88;7.28;;;19.10;92.00;;;;;;5019442;28;20108;-68
2021/07/28 05:05:46;;;;;;;12.10;8.35;;;19.10;92.20;;;;;;5019784;28;20029;-67
2021/07/28 05:08:12;;;;;;;12.32;7.97;;;19.10;92.00;;;;;;5022075;28;20037;-67
2021/07/28 05:10:38;;;;;;;13.18;8.50;;;19.10;92.10;;;;;;5019596;28;20495;-67
2021/07/28 05:13:04;;;;;;;13.98;8.82;;;19.10;92.10;;;;;;5019005;28;20057;-67
2021/07/28 05:15:30;;;;;;;15.63;9.50;;;19.10;92.20;;;;;;5017883;28;20034;-67
2021/07/28 05:17:56;;;;;;;12.88;9.48;;;19.10;92.10;;;;;;5018806;28;20117;-68
2021/07/28 05:20:21;;;;;;;12.65;8.70;;;19.10;92.20;;;;;;5019312;28;20474;-68
2021/07/28 05:22:48;;;;;;;12.23;8.75;;;19.10;92.00;;;;;;5018072;28;20025;-67
2021/07/28 05:25:14;;;;;;;12.57;8.98;;;19.20;92.00;;;;;;5015710;28;20392;-67
2021/07/28 05:27:40;;;;;;;15.40;9.55;;;19.20;91.90;;;;;;5019142;28;20072;-68
2021/07/28 05:30:06;;;;;;;14.15;9.55;;;19.20;92.00;;;;;;5019861;28;20069;-68
2021/07/28 05:32:32;;;;;;;13.77;9.85;;;19.30;91.90;;;;;;5019582;28;20403;-68
2021/07/28 05:34:58;;;;;;;18.83;10.80;;;19.40;91.80;;;;;;5017311;28;20377;-68
2021/07/28 05:37:24;;;;;;;17.00;10.57;;;19.30;91.60;;;;;;5017083;28;20025;-68
2021/07/28 05:39:50;;;;;;;17.58;10.65;;;19.30;91.70;;;;;;5014982;28;20030;-68
2021/07/28 05:42:16;;;;;;;16.83;10.85;;;19.20;91.90;;;;;;5020218;28;20038;-68
2021/07/28 05:44:42;;;;;;;14.35;10.20;;;19.20;91.90;;;;;;5017354;28;20496;-68
2021/07/28 05:47:09;;;;;;;14.65;10.60;;;19.20;91.90;;;;;;5017253;28;20492;-68
2021/07/28 05:49:34;;;;;;;20.27;12.43;;;19.20;91.90;;;;;;5017617;28;20044;-67
2021/07/28 05:52:00;;;;;;;17.13;10.52;;;19.20;91.70;;;;;;5017158;28;20029;-67
2021/07/28 05:54:26;;;;;;;12.50;9.90;;;19.20;91.90;;;;;;5015885;28;20022;-68
2021/07/28 05:56:51;;;;;;;16.27;10.48;;;19.20;92.00;;;;;;5019819;28;20026;-68
2021/07/28 05:59:17;;;;;;;15.10;10.80;;;19.20;91.90;;;;;;5020182;28;20030;-67
2021/07/28 06:01:43;;;;;;;14.43;9.82;;;19.30;91.80;;;;;;5020690;28;20399;-68
2021/07/28 06:04:09;;;;;;;15.68;10.50;;;19.30;91.80;;;;;;5014387;28;20022;-67
2021/07/28 06:06:34;;;;;;;17.10;10.10;;;19.30;91.80;;;;;;5018566;28;20045;-68
2021/07/28 06:09:00;;;;;;;16.35;10.18;;;19.40;91.80;;;;;;5017215;28;20030;-67
2021/07/28 06:11:26;;;;;;;18.75;9.13;;;19.40;91.80;;;;;;5018017;28;20065;-67
2021/07/28 06:13:52;;;;;;;13.30;8.80;;;19.40;91.90;;;;;;5017469;28;20120;-67
2021/07/28 06:16:18;;;;;;;14.23;8.38;;;19.50;92.00;;;;;;5019399;28;20029;-67
2021/07/28 06:18:44;;;;;;;13.75;9.35;;;19.60;92.00;;;;;;5019894;28;20601;-71
2021/07/28 06:21:10;;;;;;;12.75;7.85;;;19.60;91.50;;;;;;5016289;28;20061;-69
2021/07/28 06:23:36;;;;;;;9.27;6.57;;;19.70;91.40;;;;;;5015543;28;20395;-67
2021/07/28 06:26:01;;;;;;;10.45;7.65;;;19.70;91.40;;;;;;5021423;28;20025;-66
2021/07/28 06:28:27;;;;;;;9.93;7.00;;;19.80;91.20;;;;;;5015869;28;20392;-68
2021/07/28 06:30:54;;;;;;;9.25;6.97;;;19.80;90.80;;;;;;5018134;28;20395;-68
2021/07/28 06:33:20;;;;;;;9.32;6.65;;;19.90;90.50;;;;;;5013423;28;20435;-69
2021/07/28 06:35:50;;;;;;;9.45;6.90;;;20.00;90.60;;;;;;5015884;28;20022;-69
2021/07/28 06:38:16;;;;;;;9.55;6.40;;;20.00;90.50;;;;;;5018948;28;20029;-68
2021/07/28 06:40:43;;;;;;;13.18;8.07;;;20.00;90.30;;;;;;5011121;28;20025;-66
2021/07/28 06:43:09;;;;;;;10.40;7.55;;;20.10;90.10;;;;;;5011957;28;20037;-68
2021/07/28 06:45:34;;;;;;;10.05;7.15;;;20.20;89.30;;;;;;5014324;28;20030;-68
2021/07/28 06:48:00;;;;;;;14.27;7.38;;;20.10;89.90;;;;;;5016286;28;20061;-68
2021/07/28 06:50:26;;;;;;;7.70;6.13;;;20.10;90.10;;;;;;5014624;28;20061;-70
2021/07/28 06:52:52;;;;;;;9.52;6.63;;;20.10;90.30;;;;;;5016567;28;20479;-69
2021/07/28 06:55:17;;;;;;;8.10;6.03;;;20.10;90.30;;;;;;5016073;28;20488;-68
2021/07/28 06:57:43;;;;;;;8.30;5.93;;;20.20;90.20;;;;;;5016908;28;20037;-69
2021/07/28 07:00:09;;;;;;;8.98;6.75;;;20.30;90.30;;;;;;5013947;28;20026;-69
2021/07/28 07:02:35;;;;;;;7.50;6.03;;;20.30;90.10;;;;;;5010347;28;21421;-69
2021/07/28 07:05:02;;;;;;;10.05;5.47;;;20.40;90.00;;;;;;5016009;28;20088;-69
2021/07/28 07:07:28;;;;;;;7.50;6.00;;;20.40;90.10;;;;;;5015769;28;20472;-69
2021/07/28 07:09:54;;;;;;;7.53;5.88;;;20.40;90.00;;;;;;5017467;28;20103;-69
2021/07/28 07:12:21;;;;;;;9.15;5.88;;;20.50;89.50;;;;;;5016976;28;20283;-67
2021/07/28 07:14:46;;;;;;;10.75;6.93;;;20.70;89.80;;;;;;5013768;28;20021;-68
2021/07/28 07:17:12;;;;;;;14.32;7.40;;;20.70;88.80;;;;;;5014663;28;20446;-68
2021/07/28 07:19:38;;;;;;;13.00;7.10;;;20.90;89.30;;;;;;5017020;28;20034;-67
2021/07/28 07:22:04;;;;;;;8.35;6.20;;;21.00;89.40;;;;;;5016632;28;20040;-67
2021/07/28 07:24:30;;;;;;;10.43;6.07;;;21.00;87.90;;;;;;5014810;28;20396;-67
2021/07/28 07:26:56;;;;;;;9.48;5.90;;;21.00;88.00;;;;;;5015878;28;20029;-66
2021/07/28 07:29:21;;;;;;;7.10;6.10;;;21.10;87.70;;;;;;5014375;28;20033;-66
2021/07/28 07:31:47;;;;;;;9.77;6.75;;;21.10;87.30;;;;;;5014613;28;20369;-66
2021/07/28 07:34:13;;;;;;;12.65;6.30;;;21.10;86.90;;;;;;5016148;28;20091;-66
2021/07/28 07:36:39;;;;;;;8.82;6.25;;;21.10;86.70;;;;;;5018193;28;20060;-66
2021/07/28 07:39:05;;;;;;;7.90;5.97;;;21.10;87.10;;;;;;5015216;28;20660;-66
2021/07/28 07:41:31;;;;;;;8.13;6.60;;;21.10;86.60;;;;;;5014110;28;20116;-67
2021/07/28 07:43:58;;;;;;;8.13;6.03;;;21.10;86.90;;;;;;5012846;28;20419;-66
2021/07/28 07:46:25;;;;;;;10.63;6.60;;;21.00;86.80;;;;;;5014952;28;20065;-66
2021/07/28 07:48:50;;;;;;;10.15;6.80;;;21.00;86.60;;;;;;5015363;28;20415;-67
2021/07/28 07:51:16;;;;;;;7.70;5.75;;;21.00;86.40;;;;;;5016604;28;20056;-67
2021/07/28 07:53:42;;;;;;;7.82;6.53;;;21.00;87.20;;;;;;5012670;28;20602;-67
2021/07/28 07:56:08;;;;;;;8.10;5.10;;;21.00;86.90;;;;;;5015290;28;20390;-66
2021/07/28 07:58:34;;;;;;;9.45;6.90;;;21.00;87.10;;;;;;5015402;28;20029;-67
2021/07/28 08:01:06;;;;;;;6.85;5.45;;;21.00;86.60;;;;;;5014716;28;20479;-67
2021/07/28 08:03:31;;;;;;;8.55;6.65;;;21.10;87.00;;;;;;5013467;28;20065;-66
2021/07/28 08:05:57;;;;;;;7.82;5.65;;;21.20;85.20;;;;;;5014673;28;20107;-67
2021/07/28 08:08:23;;;;;;;7.60;5.88;;;21.30;85.70;;;;;;5015206;28;20045;-67
2021/07/28 08:10:49;;;;;;;9.48;6.38;;;21.30;85.60;;;;;;5015233;28;20034;-67
2021/07/28 08:13:14;;;;;;;9.52;6.10;;;21.30;85.80;;;;;;5015946;28;20119;-67
2021/07/28 08:15:40;;;;;;;9.02;5.95;;;21.30;85.60;;;;;;5016159;28;20041;-67
2021/07/28 08:18:06;;;;;;;9.27;6.80;;;21.30;85.40;;;;;;5015026;28;20026;-67
2021/07/28 08:20:32;;;;;;;8.23;6.32;;;21.40;84.90;;;;;;5014150;28;20508;-67
2021/07/28 08:22:58;;;;;;;7.68;6.20;;;21.30;84.50;;;;;;5009841;28;20160;-66
2021/07/28 08:25:24;;;;;;;9.05;5.97;;;21.30;84.70;;;;;;5010062;28;20113;-67
2021/07/28 08:27:49;;;;;;;6.90;5.70;;;21.30;83.90;;;;;;5009135;28;20053;-66
2021/07/28 08:30:15;;;;;;;7.03;6.03;;;21.30;85.00;;;;;;5003980;28;20061;-66
2021/07/28 08:32:42;;;;;;;7.32;5.65;;;21.30;85.40;;;;;;5009800;28;20034;-66
2021/07/28 08:35:08;;;;;;;9.07;6.65;;;21.40;85.20;;;;;;5011595;28;20047;-66
2021/07/28 08:37:34;;;;;;;9.27;6.20;;;21.40;84.40;;;;;;5013704;28;20041;-66
2021/07/28 08:40:00;;;;;;;8.88;6.93;;;21.40;84.40;;;;;;5009927;28;20025;-66
2021/07/28 08:42:29;;;;;;;8.93;6.13;;;21.40;84.40;;;;;;5019217;28;20038;-66
2021/07/28 08:44:54;;;;;;;7.25;5.93;;;21.40;84.70;;;;;;5013454;28;20037;-67
2021/07/28 08:47:20;;;;;;;8.88;6.22;;;21.40;84.50;;;;;;5013116;28;20034;-67
2021/07/28 08:49:46;;;;;;;9.95;6.60;;;21.40;83.90;;;;;;5012547;28;20038;-67
2021/07/28 08:52:13;;;;;;;8.00;5.88;;;21.40;83.50;;;;;;5013533;28;20125;-66
2021/07/28 08:54:39;;;;;;;7.65;5.45;;;21.50;83.20;;;;;;5011168;28;20112;-67
2021/07/28 08:57:10;;;;;;;6.80;5.82;;;21.50;83.90;;;;;;5014441;28;20105;-67
2021/07/28 08:59:36;;;;;;;10.82;5.93;;;21.40;84.40;;;;;;5024941;28;20034;-66
2021/07/28 09:02:03;;;;;;;5.35;4.85;;;21.50;83.50;;;;;;5017701;28;20036;-66
2021/07/28 09:04:29;;;;;;;7.32;5.68;;;21.50;83.10;;;;;;5009778;28;20121;-67
2021/07/28 09:06:56;;;;;;;5.25;4.20;;;21.60;81.20;;;;;;5013781;28;20547;-66
2021/07/28 09:09:22;;;;;;;8.98;4.90;;;21.60;82.30;;;;;;5011660;28;20030;-67
2021/07/28 09:11:52;;;;;;;8.88;4.80;;;21.60;82.70;;;;;;5016102;28;20068;-67
2021/07/28 09:14:21;;;;;;;7.90;4.88;;;21.60;82.50;;;;;;5014911;28;20512;-66
2021/07/28 09:16:47;;;;;;;6.85;5.18;;;21.60;82.80;;;;;;5013221;28;20029;-66
2021/07/28 09:19:12;;;;;;;7.57;4.93;;;21.70;81.70;;;;;;5012318;28;20045;-68
2021/07/28 09:21:38;;;;;;;7.95;5.50;;;21.80;80.60;;;;;;5019238;28;20053;-67
2021/07/28 09:24:13;;;;;;;8.85;5.45;;;21.80;80.90;;;;;;5015318;28;20029;-67
2021/07/28 09:29:12;;;;;;;7.30;4.68;;;21.90;81.30;;;;;;5017683;28;20056;-66
2021/07/28 09:31:50;;;;;;;7.72;5.70;;;21.90;81.50;;;;;;5013956;28;20109;-67
2021/07/28 09:34:20;;;;;;;6.28;4.88;;;22.00;80.80;;;;;;5007688;28;20025;-67
2021/07/28 09:36:47;;;;;;;6.53;5.20;;;22.10;80.90;;;;;;5012200;28;20036;-67
2021/07/28 09:39:23;;;;;;;7.70;4.65;;;22.10;80.90;;;;;;5007522;28;20120;-67
2021/07/28 09:41:50;;;;;;;8.63;5.03;;;22.20;80.60;;;;;;5006370;28;20026;-67
2021/07/28 09:44:33;;;;;;;4.85;4.32;;;22.10;80.00;;;;;;5015739;28;20037;-68
2021/07/28 09:47:24;;;;;;;6.10;5.18;;;22.10;80.10;;;;;;5014696;28;20118;-65
2021/07/28 09:50:10;;;;;;;6.38;5.30;;;22.10;79.80;;;;;;5014342;28;20033;-69
2021/07/28 09:52:36;;;;;;;5.40;4.50;;;22.10;80.00;;;;;;5013641;28;20107;-69
2021/07/28 09:55:29;;;;;;;5.70;4.70;;;22.00;80.60;;;;;;5013893;28;20113;-69
2021/07/28 09:57:57;;;;;;;9.05;5.85;;;22.10;81.00;;;;;;5012717;28;20364;-69
2021/07/28 10:00:24;;;;;;;5.40;4.90;;;22.10;80.80;;;;;;5017035;28;20077;-69
2021/07/28 10:02:51;;;;;;;6.18;4.70;;;22.20;80.30;;;;;;5013593;28;20368;-68
2021/07/28 10:05:19;;;;;;;5.18;4.50;;;22.20;80.60;;;;;;4997063;28;20040;-67
2021/07/28 10:07:49;;;;;;;8.05;4.97;;;22.10;80.90;;;;;;5014445;28;20029;-70
2021/07/28 10:10:18;;;;;;;6.25;4.55;;;22.10;80.80;;;;;;5018515;28;20495;-67
2021/07/28 10:12:46;;;;;;;5.80;4.53;;;22.10;80.90;;;;;;5013240;28;20045;-70
2021/07/28 10:15:12;;;;;;;7.20;4.63;;;22.00;81.20;;;;;;5017550;28;20518;-66
2021/07/28 10:17:40;;;;;;;6.50;4.90;;;22.00;81.10;;;;;;5016784;28;20043;-66
2021/07/28 10:20:11;;;;;;;5.22;4.30;;;21.90;81.00;;;;;;5015955;28;20105;-67
2021/07/28 10:22:38;;;;;;;6.05;5.43;;;21.90;81.20;;;;;;5014543;28;20034;-66
2021/07/28 10:25:10;;;;;;;5.60;4.65;;;22.00;81.00;;;;;;5021792;28;20049;-66
2021/07/28 10:27:39;;;;;;;6.35;4.95;;;22.20;80.90;;;;;;5016704;28;20389;-67
2021/07/28 10:30:06;;;;;;;6.70;4.93;;;22.40;81.00;;;;;;5018052;28;20034;-67
2021/07/28 10:32:33;;;;;;;6.65;4.72;;;22.50;78.80;;;;;;5016951;28;20125;-67
2021/07/28 10:35:27;;;;;;;6.57;4.82;;;22.60;78.50;;;;;;5011118;28;20120;-66
2021/07/28 10:37:54;;;;;;;5.50;4.50;;;22.70;78.10;;;;;;5015169;28;20025;-67
2021/07/28 10:40:23;;;;;;;5.78;4.57;;;22.70;78.00;;;;;;5011171;28;20029;-66
2021/07/28 10:43:01;;;;;;;7.60;4.75;;;22.60;78.00;;;;;;5012928;28;20029;-66
2021/07/28 10:45:57;;;;;;;7.38;5.07;;;22.70;78.80;;;;;;5018691;28;20387;-67
2021/07/28 10:48:49;;;;;;;8.93;4.80;;;22.70;76.80;;;;;;5016257;28;20029;-67
2021/07/28 10:51:54;;;;;;;5.28;4.40;;;22.80;75.70;;;;;;5016428;28;20025;-67
2021/07/28 10:54:45;;;;;;;6.80;4.15;;;22.80;75.70;;;;;;5015176;28;20118;-67
2021/07/28 10:57:39;;;;;;;5.32;4.10;;;22.90;76.00;;;;;;5014542;28;20499;-68
2021/07/28 11:00:07;;;;;;;5.85;4.95;;;23.00;74.60;;;;;;5017367;28;20029;-67
2021/07/28 11:02:51;;;;;;;4.88;4.07;;;23.10;74.20;;;;;;5015366;28;20499;-67
2021/07/28 11:05:27;;;;;;;6.10;4.18;;;23.10;74.30;;;;;;5017068;28;20036;-67
2021/07/28 11:08:05;;;;;;;5.28;4.72;;;23.10;75.30;;;;;;5013104;28;20029;-67
2021/07/28 11:10:32;;;;;;;5.72;4.32;;;23.10;75.50;;;;;;5016777;28;20404;-71
2021/07/28 11:12:59;;;;;;;4.80;4.30;;;23.30;75.80;;;;;;5016927;28;20033;-71
2021/07/28 11:15:25;;;;;;;5.05;4.03;;;23.40;75.20;;;;;;5014781;28;20022;-70
2021/07/28 11:17:55;;;;;;;4.40;4.00;;;23.50;75.30;;;;;;5018059;28;20168;-70
2021/07/28 11:20:30;;;;;;;4.80;4.00;;;23.80;72.90;;;;;;5019359;28;20116;-70
2021/07/28 11:23:25;;;;;;;5.88;3.85;;;23.90;72.00;;;;;;5016848;28;20845;-70
2021/07/28 11:25:52;;;;;;;5.53;4.00;;;23.90;72.20;;;;;;5017540;28;20029;-70
2021/07/28 11:28:19;;;;;;;4.43;4.03;;;23.80;72.50;;;;;;5015792;28;20026;-69
2021/07/28 11:31:04;;;;;;;7.50;4.20;;;23.70;74.10;;;;;;5017412;28;20201;-70
2021/07/28 11:33:32;;;;;;;5.28;4.03;;;23.70;72.20;;;;;;5013655;28;20025;-70
2021/07/28 11:35:59;;;;;;;9.35;4.45;;;23.70;72.40;;;;;;5014716;28;20076;-69
2021/07/28 11:38:46;;;;;;;4.85;4.00;;;23.50;72.00;;;;;;5012488;28;20049;-67
2021/07/28 11:41:12;;;;;;;5.65;4.07;;;23.40;72.50;;;;;;5011309;28;20085;-67
2021/07/28 11:43:40;;;;;;;4.90;4.10;;;23.20;73.60;;;;;;5013072;28;20038;-67
2021/07/28 11:46:06;;;;;;;4.97;3.63;;;23.10;74.60;;;;;;5013209;28;20544;-67
2021/07/28 11:48:34;;;;;;;4.47;3.45;;;23.00;75.20;;;;;;5015082;28;20483;-67
2021/07/28 11:51:03;;;;;;;3.83;3.47;;;23.00;75.70;;;;;;5015043;28;20052;-67
2021/07/28 11:53:29;;;;;;;5.47;3.97;;;23.10;75.90;;;;;;5016883;28;20037;-67
2021/07/28 11:56:06;;;;;;;4.30;3.25;;;23.10;74.70;;;;;;5012102;28;20536;-67
2021/07/28 11:58:32;;;;;;;4.70;3.80;;;23.10;75.00;;;;;;5012587;28;20026;-67
2021/07/28 12:00:58;;;;;;;5.22;3.72;;;23.10;73.70;;;;;;5013804;28;20843;-67
2021/07/28 12:03:28;;;;;;;4.57;3.97;;;23.10;74.70;;;;;;5014456;28;20048;-67
2021/07/28 12:06:02;;;;;;;5.40;4.17;;;23.20;74.70;;;;;;5015631;28;20021;-68
2021/07/28 12:08:36;;;;;;;4.43;3.97;;;23.20;75.40;;;;;;5016005;28;20061;-67
2021/07/28 12:11:07;;;;;;;7.32;4.15;;;23.10;74.80;;;;;;5015547;28;20031;-67
2021/07/28 12:13:43;;;;;;;5.75;4.15;;;23.10;74.90;;;;;;5018955;28;20037;-68
2021/07/28 12:16:08;;;;;;;7.75;5.28;;;23.30;75.60;;;;;;5014558;28;20125;-68
2021/07/28 12:18:51;;;;;;;16.42;6.18;;;23.80;74.90;;;;;;5020603;28;20109;-67
2021/07/28 12:21:16;;;;;;;115.55;94.65;;;24.60;73.80;;;;;;5020050;28;20036;-68
2021/07/28 12:23:52;;;;;;;78.72;61.08;;;25.80;72.40;;;;;;5018392;28;20025;-68
2021/07/28 12:26:48;;;;;;;12.70;8.77;;;27.20;65.10;;;;;;5020393;28;20419;-68
2021/07/28 12:29:33;;;;;;;4.85;3.22;;;28.30;59.50;;;;;;5015617;28;20135;-66
2021/07/28 12:32:11;;;;;;;9.35;5.15;;;29.10;59.70;;;;;;5019698;28;20117;-70
2021/07/28 12:34:38;;;;;;;6.13;3.60;;;29.60;56.10;;;;;;5015141;28;20021;-68
2021/07/28 12:37:24;;;;;;;12.20;4.35;;;29.60;55.60;;;;;;5020795;28;20033;-68
2021/07/28 12:39:57;;;;;;;6.75;3.97;;;29.40;56.30;;;;;;5013767;28;20061;-68
2021/07/28 12:42:23;;;;;;;8.52;4.25;;;29.10;57.60;;;;;;5018828;28;20531;-68
2021/07/28 12:44:48;;;;;;;5.65;3.60;;;28.20;56.50;;;;;;5018165;28;20137;-68
2021/07/28 12:47:14;;;;;;;6.45;4.30;;;27.40;58.80;;;;;;5016514;28;20687;-68
2021/07/28 12:49:40;;;;;;;4.65;3.10;;;26.90;60.80;;;;;;5017472;28;20447;-68
2021/07/28 12:52:06;;;;;;;3.58;2.90;;;26.60;61.90;;;;;;5018525;28;20116;-68
2021/07/28 12:54:31;;;;;;;4.65;3.35;;;26.50;61.10;;;;;;5017275;28;20492;-68